createdAt,value
2022-10-02T00:00:53.624Z,15.39
2022-10-02T00:03:31.071Z,15.63
2022-10-02T00:06:18.206Z,15.69
2022-10-02T00:08:47.356Z,16.23
2022-10-02T00:11:13.869Z,15.92
2022-10-02T00:13:58.722Z,15.64
2022-10-02T00:16:38.001Z,15.50
2022-10-02T00:19:04.913Z,15.00
2022-10-02T00:21:40.753Z,15.26
2022-10-02T00:24:15.031Z,14.44
2022-10-02T00:27:06.019Z,14.16
2022-10-02T00:29:41.336Z,14.27
2022-10-02T00:32:22.502Z,14.38
2022-10-02T00:35:13.334Z,13.90
2022-10-02T00:37:50.244Z,14.29
2022-10-02T00:40:37.826Z,14.19
2022-10-02T00:43:43.678Z,14.52
2022-10-02T00:46:52.284Z,14.79
2022-10-02T00:49:30.744Z,14.87
2022-10-02T00:52:05.537Z,15.09
2022-10-02T00:55:00.626Z,16.04
2022-10-02T00:57:54.518Z,16.13
2022-10-02T01:00:22.136Z,15.97
2022-10-02T01:02:51.338Z,16.09
2022-10-02T01:05:20.181Z,16.39
2022-10-02T01:07:50.845Z,16.10
2022-10-02T01:10:17.835Z,16.42
2022-10-02T01:12:45.112Z,16.18
2022-10-02T01:15:15.271Z,15.76
2022-10-02T01:17:43.079Z,16.22
2022-10-02T01:20:17.369Z,16.65
2022-10-02T01:22:57.337Z,16.94
2022-10-02T01:25:23.964Z,16.81
2022-10-02T01:27:53.310Z,17.12
2022-10-02T01:30:21.338Z,17.05
2022-10-02T01:32:57.888Z,16.31
2022-10-02T01:35:34.143Z,15.25
2022-10-02T01:38:06.946Z,14.63
2022-10-02T01:40:36.819Z,14.27
2022-10-02T01:43:09.904Z,13.88
2022-10-02T01:45:56.264Z,13.86
2022-10-02T01:48:50.901Z,13.98
2022-10-02T01:51:44.435Z,14.09
2022-10-02T01:54:26.170Z,14.57
2022-10-02T01:57:29.434Z,14.60
2022-10-02T02:00:18.700Z,14.68
2022-10-02T02:03:03.669Z,15.32
2022-10-02T02:06:04.140Z,15.13
2022-10-02T02:08:40.302Z,15.43
2022-10-02T02:11:20.457Z,15.34
2022-10-02T02:13:49.833Z,16.10
2022-10-02T02:16:22.539Z,16.59
2022-10-02T02:19:07.270Z,16.61
2022-10-02T02:21:45.318Z,16.64
2022-10-02T02:24:22.335Z,16.95
2022-10-02T02:26:53.445Z,16.79
2022-10-02T02:29:24.747Z,16.99
2022-10-02T02:31:53.787Z,16.63
2022-10-02T02:34:27.696Z,16.30
2022-10-02T02:37:02.519Z,16.79
2022-10-02T02:39:40.624Z,16.81
2022-10-02T02:42:15.614Z,16.84
2022-10-02T02:44:57.588Z,16.72
2022-10-02T02:47:41.462Z,16.82
2022-10-02T02:50:12.666Z,17.15
2022-10-02T02:52:41.991Z,16.90
2022-10-02T02:55:21.371Z,16.73
2022-10-02T02:58:06.249Z,17.07
2022-10-02T03:00:33.315Z,17.27
2022-10-02T03:03:00.008Z,16.43
2022-10-02T03:05:28.784Z,15.19
2022-10-02T03:08:01.052Z,15.58
2022-10-02T03:10:59.094Z,15.65
2022-10-02T03:13:52.932Z,15.80
2022-10-02T03:16:28.361Z,15.10
2022-10-02T03:19:26.691Z,15.62
2022-10-02T03:22:11.642Z,15.07
2022-10-02T03:24:54.725Z,15.11
2022-10-02T03:27:36.960Z,15.78
2022-10-02T03:30:09.746Z,16.24
2022-10-02T03:32:40.804Z,16.76
2022-10-02T03:35:11.701Z,16.17
2022-10-02T03:37:40.951Z,16.67
2022-10-02T03:40:08.334Z,15.96
2022-10-02T03:42:35.707Z,16.30
2022-10-02T03:45:02.975Z,16.20
2022-10-02T03:47:29.570Z,15.64
2022-10-02T03:49:56.173Z,15.76
2022-10-02T03:52:24.296Z,15.81
2022-10-02T03:55:02.469Z,16.15
2022-10-02T03:57:33.377Z,16.58
2022-10-02T04:00:34.842Z,16.50
2022-10-02T04:03:19.795Z,16.09
2022-10-02T04:05:56.438Z,16.50
2022-10-02T04:08:30.076Z,16.46
2022-10-02T04:11:01.877Z,16.74
2022-10-02T04:13:53.153Z,17.24
2022-10-02T04:16:36.335Z,17.28
2022-10-02T04:19:19.941Z,17.37
2022-10-02T04:22:07.046Z,17.31
2022-10-02T04:24:42.763Z,17.50
2022-10-02T04:27:12.092Z,17.34
2022-10-02T04:29:47.746Z,17.31
2022-10-02T04:32:17.340Z,17.32
2022-10-02T04:34:44.181Z,17.41
2022-10-02T04:37:16.510Z,16.94
2022-10-02T04:40:18.374Z,17.36
2022-10-02T04:42:54.081Z,17.46
2022-10-02T04:45:42.418Z,17.06
2022-10-02T04:48:24.204Z,17.07
2022-10-02T04:50:54.111Z,16.78
2022-10-02T04:53:42.657Z,17.14
2022-10-02T04:56:33.593Z,16.26
2022-10-02T04:59:17.244Z,15.98
2022-10-02T05:02:06.831Z,15.66
2022-10-02T05:04:36.539Z,16.13
2022-10-02T05:07:34.192Z,16.56
2022-10-02T05:10:28.122Z,16.40
2022-10-02T05:13:36.875Z,16.81
2022-10-02T05:16:18.290Z,16.24
2022-10-02T05:18:50.675Z,16.82
2022-10-02T05:21:32.436Z,17.00
2022-10-02T05:24:21.058Z,17.42
2022-10-02T05:27:10.376Z,17.41
2022-10-02T05:29:58.515Z,17.04
2022-10-02T05:32:34.341Z,16.64
2022-10-02T05:35:41.057Z,17.32
2022-10-02T05:38:36.285Z,17.02
2022-10-02T05:41:18.295Z,16.77
2022-10-02T05:43:53.776Z,16.37
2022-10-02T05:46:29.541Z,16.22
2022-10-02T05:49:06.528Z,16.04
2022-10-02T05:52:02.379Z,15.74
2022-10-02T05:54:34.083Z,15.74
2022-10-02T05:57:11.977Z,16.12
2022-10-02T06:00:03.601Z,16.18
2022-10-02T06:03:05.421Z,16.86
2022-10-02T06:05:53.549Z,16.42
2022-10-02T06:08:43.731Z,16.86
2022-10-02T06:11:31.864Z,16.19
2022-10-02T06:14:07.029Z,16.85
2022-10-02T06:16:38.157Z,17.04
2022-10-02T06:19:27.312Z,16.82
2022-10-02T06:22:03.975Z,16.58
2022-10-02T06:25:02.583Z,16.89
2022-10-02T06:28:07.391Z,16.88
2022-10-02T06:30:41.441Z,16.84
2022-10-02T06:33:24.215Z,17.11
2022-10-02T06:36:13.801Z,17.06
2022-10-02T06:38:59.033Z,17.29
2022-10-02T06:41:46.751Z,16.86
2022-10-02T06:44:17.590Z,17.09
2022-10-02T06:47:12.108Z,17.51
2022-10-02T06:50:15.904Z,16.99
2022-10-02T06:52:51.176Z,16.39
2022-10-02T06:55:34.885Z,16.00
2022-10-02T06:58:39.260Z,16.59
2022-10-02T07:01:26.955Z,16.53
2022-10-02T07:04:29.100Z,16.61
2022-10-02T07:07:12.510Z,16.46
2022-10-02T07:10:17.564Z,16.64
2022-10-02T07:13:02.296Z,16.12
2022-10-02T07:16:01.013Z,15.76
2022-10-02T07:18:43.953Z,16.08
2022-10-02T07:21:24.103Z,16.18
2022-10-02T07:24:09.068Z,16.09
2022-10-02T07:27:03.592Z,15.91
2022-10-02T07:30:00.845Z,16.16
2022-10-02T07:32:33.469Z,16.23
2022-10-02T07:35:07.903Z,16.11
2022-10-02T07:37:34.468Z,16.61
2022-10-02T07:40:24.743Z,16.54
2022-10-02T07:43:10.237Z,16.62
2022-10-02T07:45:41.639Z,16.68
2022-10-02T07:48:24.964Z,16.56
2022-10-02T07:50:57.587Z,16.95
2022-10-02T07:53:41.557Z,17.29
2022-10-02T07:56:12.820Z,16.99
2022-10-02T07:58:54.824Z,17.71
2022-10-02T08:01:28.151Z,17.13
2022-10-02T08:04:12.450Z,17.03
2022-10-02T08:06:41.083Z,17.42
2022-10-02T08:09:31.706Z,17.46
2022-10-02T08:12:27.263Z,17.30
2022-10-02T08:14:55.929Z,17.12
2022-10-02T08:17:49.870Z,16.40
2022-10-02T08:20:18.090Z,16.08
2022-10-02T08:22:59.160Z,15.86
2022-10-02T08:25:31.834Z,15.51
2022-10-02T08:28:01.702Z,15.75
2022-10-02T08:30:28.683Z,15.94
2022-10-02T08:32:55.465Z,15.82
2022-10-02T08:35:41.119Z,16.59
2022-10-02T08:38:32.575Z,16.30
2022-10-02T08:41:24.006Z,16.54
2022-10-02T08:43:56.347Z,16.51
2022-10-02T08:47:05.106Z,16.48
2022-10-02T08:50:00.879Z,17.11
2022-10-02T08:52:55.713Z,17.10
2022-10-02T08:55:37.735Z,16.98
2022-10-02T08:58:47.357Z,17.22
2022-10-02T09:01:35.387Z,17.65
2022-10-02T09:04:32.510Z,17.45
2022-10-02T09:07:28.044Z,17.57
2022-10-02T09:10:33.696Z,17.55
2022-10-02T09:13:28.744Z,16.82
2022-10-02T09:16:33.100Z,17.13
2022-10-02T09:19:39.997Z,17.28
2022-10-02T09:22:44.109Z,17.51
2022-10-02T09:25:17.434Z,17.51
2022-10-02T09:27:50.248Z,17.69
2022-10-02T09:30:34.014Z,17.22
2022-10-02T09:33:03.325Z,17.29
2022-10-02T09:36:10.934Z,17.39
2022-10-02T09:39:14.780Z,17.47
2022-10-02T09:41:43.987Z,17.81
2022-10-02T09:44:47.841Z,17.80
2022-10-02T09:47:36.218Z,18.05
2022-10-02T09:50:06.044Z,18.24
2022-10-02T09:52:43.153Z,18.45
2022-10-02T09:55:28.535Z,18.56
2022-10-02T09:58:13.098Z,18.69
2022-10-02T10:01:11.570Z,19.40
2022-10-02T10:04:10.644Z,19.50
2022-10-02T10:06:49.384Z,19.61
2022-10-02T10:09:53.612Z,20.11
2022-10-02T10:12:45.033Z,19.52
2022-10-02T10:15:29.462Z,19.59
2022-10-02T10:18:21.046Z,20.11
2022-10-02T10:21:30.693Z,20.37
2022-10-02T10:24:34.564Z,19.38
2022-10-02T10:27:26.752Z,19.17
2022-10-02T10:30:08.513Z,19.40
2022-10-02T10:33:14.167Z,19.25
2022-10-02T10:35:52.736Z,19.44
2022-10-02T10:38:47.043Z,19.08
2022-10-02T10:41:44.583Z,19.14
2022-10-02T10:44:23.203Z,19.02
2022-10-02T10:46:49.735Z,19.29
2022-10-02T10:49:25.399Z,19.59
2022-10-02T10:52:37.092Z,19.74
2022-10-02T10:55:40.537Z,19.92
2022-10-02T10:58:36.616Z,19.98
2022-10-02T11:01:50.603Z,19.79
2022-10-02T11:04:54.236Z,19.79
2022-10-02T11:07:52.064Z,19.31
2022-10-02T11:14:06.863Z,19.44
2022-10-02T11:17:03.707Z,19.36
2022-10-02T11:19:36.390Z,20.00
2022-10-02T11:22:24.710Z,19.80
2022-10-02T11:25:00.242Z,19.66
2022-10-02T11:27:45.339Z,20.10
2022-10-02T11:30:14.924Z,19.83
2022-10-02T11:33:25.900Z,19.81
2022-10-02T11:36:22.491Z,20.04
2022-10-02T11:38:54.890Z,20.09
2022-10-02T11:41:56.766Z,20.13
2022-10-02T11:45:02.196Z,19.98
2022-10-02T11:47:34.809Z,20.36
2022-10-02T11:50:27.819Z,20.54
2022-10-02T11:53:18.550Z,20.18
2022-10-02T11:55:56.324Z,19.66
2022-10-02T11:59:01.460Z,20.10
2022-10-02T12:01:34.244Z,19.70
2022-10-02T12:04:20.979Z,19.85
2022-10-02T12:07:20.067Z,19.82
2022-10-02T12:10:10.939Z,19.96
2022-10-02T12:12:46.617Z,20.07
2022-10-02T12:15:39.640Z,19.92
2022-10-02T12:18:37.191Z,20.36
2022-10-02T12:21:21.812Z,19.82
2022-10-02T12:24:16.106Z,19.99
2022-10-02T12:26:54.785Z,19.92
2022-10-02T12:29:31.616Z,19.95
2022-10-02T12:32:29.009Z,20.26
2022-10-02T12:35:17.428Z,19.88
2022-10-02T12:37:52.917Z,19.94
2022-10-02T12:40:57.087Z,20.17
2022-10-02T12:44:10.846Z,20.24
2022-10-02T12:46:55.269Z,20.22
2022-10-02T12:49:53.555Z,20.37
2022-10-02T12:52:50.114Z,20.32
2022-10-02T12:55:47.793Z,20.15
2022-10-02T12:58:35.210Z,20.56
2022-10-02T13:01:26.576Z,20.65
2022-10-02T13:04:05.024Z,20.26
2022-10-02T13:06:43.629Z,20.23
2022-10-02T13:10:02.686Z,20.09
2022-10-02T13:13:06.578Z,20.04
2022-10-02T13:19:32.238Z,19.86
2022-10-02T13:22:15.501Z,19.83
2022-10-02T13:25:02.592Z,19.99
2022-10-02T13:27:44.027Z,20.31
2022-10-02T13:30:23.096Z,20.56
2022-10-02T13:33:39.545Z,20.60
2022-10-02T13:36:33.766Z,20.74
2022-10-02T13:39:20.049Z,20.57
2022-10-02T13:42:05.149Z,20.85
2022-10-02T13:45:01.279Z,20.88
2022-10-02T13:48:09.048Z,21.01
2022-10-02T13:50:47.830Z,20.97
2022-10-02T13:53:33.380Z,20.91
2022-10-02T13:56:27.733Z,21.31
2022-10-02T13:59:10.965Z,21.42
2022-10-02T14:02:19.209Z,20.97
2022-10-02T14:04:45.736Z,21.15
2022-10-02T14:07:39.784Z,21.31
2022-10-02T14:10:13.223Z,21.13
2022-10-02T14:13:14.425Z,21.03
2022-10-02T14:15:55.730Z,21.08
2022-10-02T14:18:25.305Z,21.02
2022-10-02T14:21:10.704Z,21.08
2022-10-02T14:23:52.560Z,20.65
2022-10-02T14:26:24.989Z,20.54
2022-10-02T14:28:54.410Z,20.72
2022-10-02T14:31:33.188Z,20.74
2022-10-02T14:34:37.090Z,20.88
2022-10-02T14:37:25.177Z,20.71
2022-10-02T14:39:57.203Z,20.52
2022-10-02T14:42:26.703Z,20.72
2022-10-02T14:45:11.503Z,20.72
2022-10-02T14:47:59.543Z,20.72
2022-10-02T14:50:29.185Z,20.48
2022-10-02T14:53:30.398Z,20.22
2022-10-02T14:56:15.386Z,20.25
2022-10-02T14:58:59.977Z,20.10
2022-10-02T15:01:26.866Z,19.91
2022-10-02T15:04:14.762Z,20.21
2022-10-02T15:07:02.618Z,20.54
2022-10-02T15:10:04.810Z,19.94
2022-10-02T15:12:57.372Z,19.85
2022-10-02T15:15:35.565Z,19.74
2022-10-02T15:18:38.957Z,20.03
2022-10-02T15:21:26.848Z,19.68
2022-10-02T15:23:57.840Z,19.78
2022-10-02T15:26:45.762Z,20.03
2022-10-02T15:29:36.933Z,20.03
2022-10-02T15:32:48.478Z,19.90
2022-10-02T15:35:20.901Z,19.92
2022-10-02T15:38:21.277Z,20.01
2022-10-02T15:41:12.086Z,19.98
2022-10-02T15:43:57.809Z,19.55
2022-10-02T15:46:36.245Z,19.57
2022-10-02T15:49:31.041Z,19.79
2022-10-02T15:52:16.528Z,19.60
2022-10-02T15:54:52.337Z,19.49
2022-10-02T15:57:34.027Z,19.72
2022-10-02T16:00:10.011Z,20.02
2022-10-02T16:03:01.759Z,20.01
2022-10-02T16:05:31.079Z,19.47
2022-10-02T16:08:26.738Z,19.33
2022-10-02T16:11:14.434Z,19.24
2022-10-02T16:14:21.220Z,18.96
2022-10-02T16:17:22.002Z,18.97
2022-10-02T16:20:26.320Z,18.78
2022-10-02T16:23:10.618Z,19.11
2022-10-02T16:25:49.138Z,19.04
2022-10-02T16:28:47.491Z,18.76
2022-10-02T16:31:23.285Z,18.96
2022-10-02T16:34:48.216Z,18.96
2022-10-02T16:37:24.843Z,19.24
2022-10-02T16:40:02.878Z,19.00
2022-10-02T16:42:49.513Z,19.33
2022-10-02T16:45:48.236Z,19.71
2022-10-02T16:48:37.018Z,19.79
2022-10-02T16:51:39.526Z,19.73
2022-10-02T16:54:08.984Z,20.16
2022-10-02T16:56:58.752Z,20.44
2022-10-02T16:59:32.270Z,20.99
2022-10-02T17:02:18.633Z,20.56
2022-10-02T17:04:57.956Z,20.13
2022-10-02T17:07:40.761Z,20.38
2022-10-02T17:10:36.567Z,20.55
2022-10-02T17:13:26.419Z,20.80
2022-10-02T17:16:29.393Z,20.78
2022-10-02T17:18:59.809Z,20.73
2022-10-02T17:21:39.449Z,20.33
2022-10-02T17:24:39.354Z,19.75
2022-10-02T17:27:18.023Z,19.95
2022-10-02T17:29:47.488Z,20.31
2022-10-02T17:32:34.089Z,20.50
2022-10-02T17:35:00.689Z,20.18
2022-10-02T17:38:00.049Z,20.34
2022-10-02T17:40:57.194Z,20.44
2022-10-02T17:43:28.366Z,20.49
2022-10-02T17:46:19.103Z,20.35
2022-10-02T17:49:08.604Z,19.61
2022-10-02T17:51:59.561Z,19.79
2022-10-02T17:54:26.129Z,20.07
2022-10-02T17:56:52.664Z,19.87
2022-10-02T17:59:28.044Z,19.97
2022-10-02T18:02:11.950Z,20.39
2022-10-02T18:05:16.021Z,20.39
2022-10-02T18:08:00.832Z,20.19
2022-10-02T18:10:39.485Z,19.70
2022-10-02T18:13:17.953Z,20.14
2022-10-02T18:15:55.899Z,20.12
2022-10-02T18:18:32.745Z,20.30
2022-10-02T18:21:23.089Z,20.23
2022-10-02T18:24:03.408Z,19.43
2022-10-02T18:26:37.914Z,19.09
2022-10-02T18:29:54.638Z,19.15
2022-10-02T18:32:35.893Z,18.95
2022-10-02T18:35:19.434Z,19.58
2022-10-02T18:38:00.874Z,19.66
2022-10-02T18:40:47.518Z,18.80
2022-10-02T18:43:44.982Z,18.57
2022-10-02T18:46:36.095Z,19.36
2022-10-02T18:49:27.558Z,19.59
2022-10-02T18:52:15.523Z,18.86
2022-10-02T18:54:57.186Z,18.75
2022-10-02T18:57:39.939Z,19.11
2022-10-02T19:00:21.456Z,19.20
2022-10-02T19:03:12.168Z,18.91
2022-10-02T19:06:15.982Z,19.24
2022-10-02T19:09:07.430Z,19.17
2022-10-02T19:11:47.889Z,19.03
2022-10-02T19:14:27.721Z,18.75
2022-10-02T19:17:00.923Z,19.04
2022-10-02T19:19:29.418Z,18.17
2022-10-02T19:22:01.253Z,17.52
2022-10-02T19:24:39.122Z,17.38
2022-10-02T19:27:19.313Z,17.83
2022-10-02T19:29:52.505Z,17.59
2022-10-02T19:32:32.189Z,17.73
2022-10-02T19:35:17.319Z,17.91
2022-10-02T19:37:48.444Z,17.86
2022-10-02T19:40:22.218Z,17.76
2022-10-02T19:43:04.455Z,18.25
2022-10-02T19:45:35.766Z,18.16
2022-10-02T19:48:07.020Z,18.18
2022-10-02T19:50:51.559Z,18.78
2022-10-02T19:53:52.542Z,19.02
2022-10-02T19:56:42.598Z,19.04
2022-10-02T19:59:19.466Z,19.12
2022-10-02T20:01:52.293Z,18.80
2022-10-02T20:04:22.895Z,18.46
2022-10-02T20:06:56.026Z,19.02
2022-10-02T20:09:46.884Z,19.38
2022-10-02T20:12:19.977Z,18.37
2022-10-02T20:14:55.421Z,18.44
2022-10-02T20:17:22.602Z,18.59
2022-10-02T20:20:04.770Z,18.09
2022-10-02T20:22:56.575Z,17.49
2022-10-02T20:26:01.386Z,18.09
2022-10-02T20:28:32.414Z,18.53
2022-10-02T20:31:10.370Z,18.58
2022-10-02T20:33:45.310Z,17.87
2022-10-02T20:36:21.536Z,17.48
2022-10-02T20:38:55.501Z,17.65
2022-10-02T20:41:31.060Z,18.11
2022-10-02T20:44:02.236Z,17.59
2022-10-02T20:46:52.889Z,18.02
2022-10-02T20:49:50.292Z,17.94
2022-10-02T20:52:32.989Z,17.95
2022-10-02T20:55:25.262Z,17.27
2022-10-02T20:58:01.126Z,16.51
2022-10-02T21:00:42.875Z,16.99
2022-10-02T21:03:27.694Z,17.09
2022-10-02T21:06:10.544Z,16.96
2022-10-02T21:08:37.083Z,16.98
2022-10-02T21:11:12.442Z,17.39
2022-10-02T21:14:12.723Z,16.99
2022-10-02T21:17:11.599Z,17.07
2022-10-02T21:20:19.559Z,16.84
2022-10-02T21:23:26.555Z,17.14
2022-10-02T21:26:26.083Z,17.91
2022-10-02T21:28:56.100Z,17.01
2022-10-02T21:31:25.350Z,17.17
2022-10-02T21:34:03.968Z,16.54
2022-10-02T21:36:46.502Z,16.64
2022-10-02T21:39:25.370Z,16.49
2022-10-02T21:42:10.505Z,15.91
2022-10-02T21:45:14.304Z,16.52
2022-10-02T21:48:18.288Z,16.02
2022-10-02T21:50:53.981Z,16.41
2022-10-02T21:53:54.246Z,16.78
2022-10-02T21:56:57.187Z,16.92
2022-10-02T21:59:57.601Z,16.84
2022-10-02T22:02:53.398Z,16.33
2022-10-02T22:05:23.071Z,16.25
2022-10-02T22:07:59.258Z,16.28
2022-10-02T22:10:34.827Z,16.98
2022-10-02T22:13:22.491Z,17.74
2022-10-02T22:16:06.057Z,17.28
2022-10-02T22:18:58.934Z,16.88
2022-10-02T22:21:43.812Z,16.08
2022-10-02T22:24:31.848Z,15.99
2022-10-02T22:27:37.281Z,15.78
2022-10-02T22:30:04.980Z,15.72
2022-10-02T22:32:37.208Z,16.24
2022-10-02T22:35:03.777Z,16.24
2022-10-02T22:37:46.350Z,16.31
2022-10-02T22:40:22.964Z,16.36
2022-10-02T22:42:58.615Z,16.32
2022-10-02T22:45:37.313Z,15.85
2022-10-02T22:48:15.756Z,15.77
2022-10-02T22:50:54.223Z,16.01
2022-10-02T22:53:26.486Z,16.29
2022-10-02T22:55:57.395Z,16.41
2022-10-02T22:58:56.070Z,16.32
2022-10-02T23:01:40.803Z,16.09
2022-10-02T23:04:22.823Z,16.00
2022-10-02T23:06:59.748Z,15.76
2022-10-02T23:09:54.301Z,15.99
2022-10-02T23:12:44.500Z,15.68
2022-10-02T23:15:45.262Z,15.87
2022-10-02T23:18:34.695Z,16.45
2022-10-02T23:21:19.410Z,15.79
2022-10-02T23:23:54.920Z,15.80
2022-10-02T23:26:44.660Z,16.43
2022-10-02T23:29:22.117Z,16.96
2022-10-02T23:31:54.900Z,17.26
2022-10-02T23:34:53.552Z,17.23
2022-10-02T23:37:37.988Z,17.40
2022-10-02T23:40:33.038Z,18.06
2022-10-02T23:43:04.980Z,17.74
2022-10-02T23:45:50.868Z,17.06
2022-10-02T23:48:19.058Z,16.79
2022-10-02T23:51:22.880Z,16.87
2022-10-02T23:53:55.115Z,16.39
2022-10-02T23:56:27.518Z,16.13
2022-10-02T23:59:06.088Z,16.09
